Terminal Aerodrome Forecast
Issued by NWS Charleston, SC

Home | Current Version | Previous Version | Text Only | Print | Product List | Glossary On
Versions: 1 2 3 4 5 6 7 8 9 10 11 12 13 14 15 16 17 18 19
228
FTUS42 KCHS 091121
TAFSAV
TAF
KSAV 091121Z 0912/1012 25010KT P6SM SKC
     FM091430 26013G19KT P6SM FEW060
     FM091600 27024G32KT P6SM BKN060
     FM100000 27014G21KT P6SM SCT070
     FM100500 27013G19KT P6SM SKC=

USA.gov is the U.S. government's official web portal to all federal, state and local government web resources and services.